createdAt,value
2023-02-08T00:01:48.616Z,9.55
2023-02-08T00:04:15.458Z,8.80
2023-02-08T00:06:42.116Z,9.40
2023-02-08T00:09:08.986Z,8.75
2023-02-08T00:11:35.877Z,8.93
2023-02-08T00:14:02.771Z,9.10
2023-02-08T00:16:29.505Z,8.82
2023-02-08T00:18:56.231Z,7.53
2023-02-08T00:21:22.825Z,9.20
2023-02-08T00:23:49.924Z,9.45
2023-02-08T00:26:16.734Z,8.27
2023-02-08T00:28:44.402Z,9.02
2023-02-08T00:31:11.044Z,8.63
2023-02-08T00:33:37.663Z,8.85
2023-02-08T00:36:06.878Z,8.23
2023-02-08T00:38:33.476Z,8.75
2023-02-08T00:41:00.026Z,8.32
2023-02-08T00:43:26.593Z,8.77
2023-02-08T00:45:55.173Z,8.55
2023-02-08T00:48:24.150Z,8.00
2023-02-08T00:51:13.468Z,8.13
2023-02-08T00:53:42.978Z,8.25
2023-02-08T00:56:10.831Z,8.75
2023-02-08T00:58:37.715Z,8.30
2023-02-08T01:01:05.220Z,8.32
2023-02-08T01:03:34.452Z,8.88
2023-02-08T01:06:03.575Z,8.38
2023-02-08T01:08:32.489Z,8.57
2023-02-08T01:11:13.123Z,8.50
2023-02-08T01:13:41.171Z,7.97
2023-02-08T01:16:13.608Z,8.25
2023-02-08T01:18:41.845Z,8.00
2023-02-08T01:21:10.662Z,7.53
2023-02-08T01:23:37.509Z,8.02
2023-02-08T01:26:05.162Z,7.88
2023-02-08T01:28:32.240Z,7.65
2023-02-08T01:30:59.302Z,7.30
2023-02-08T01:33:26.025Z,7.72
2023-02-08T01:35:53.191Z,8.63
2023-02-08T01:38:20.185Z,8.85
2023-02-08T01:40:47.874Z,8.55
2023-02-08T01:43:25.129Z,8.88
2023-02-08T01:45:52.496Z,8.18
2023-02-08T01:48:24.089Z,8.68
2023-02-08T01:50:55.734Z,7.80
2023-02-08T01:53:22.741Z,8.60
2023-02-08T01:55:52.299Z,8.63
2023-02-08T01:58:19.943Z,8.68
2023-02-08T02:00:47.404Z,8.77
2023-02-08T02:03:14.544Z,8.55
2023-02-08T02:05:44.287Z,8.75
2023-02-08T02:08:11.591Z,9.20
2023-02-08T02:10:39.486Z,8.35
2023-02-08T02:13:08.643Z,8.90
2023-02-08T02:15:35.485Z,9.23
2023-02-08T02:18:05.281Z,9.50
2023-02-08T02:20:57.522Z,9.27
2023-02-08T02:23:53.568Z,8.27
2023-02-08T02:26:54.829Z,7.80
2023-02-08T02:29:27.355Z,8.82
2023-02-08T02:32:23.194Z,8.98
2023-02-08T02:35:09.053Z,8.60
2023-02-08T02:37:42.748Z,8.15
2023-02-08T02:40:35.695Z,9.05
2023-02-08T02:43:32.773Z,8.05
2023-02-08T02:46:25.026Z,8.20
2023-02-08T02:49:00.860Z,9.13
2023-02-08T02:51:28.828Z,9.07
2023-02-08T02:54:08.878Z,9.32
2023-02-08T02:56:42.849Z,9.40
2023-02-08T02:59:11.281Z,8.70
2023-02-08T03:01:39.117Z,9.88
2023-02-08T03:04:17.609Z,9.07
2023-02-08T03:07:19.379Z,8.50
2023-02-08T03:10:07.558Z,8.27
2023-02-08T03:12:49.402Z,8.43
2023-02-08T03:15:27.982Z,8.43
2023-02-08T03:18:00.150Z,8.30
2023-02-08T03:20:32.484Z,8.07
2023-02-08T03:23:11.194Z,9.63
2023-02-08T03:26:05.836Z,8.25
2023-02-08T03:29:28.001Z,8.57
2023-02-08T03:32:04.451Z,9.30
2023-02-08T03:34:45.044Z,8.93
2023-02-08T03:37:17.987Z,8.57
2023-02-08T03:39:46.994Z,9.35
2023-02-08T03:42:17.904Z,8.38
2023-02-08T03:44:54.265Z,8.80
2023-02-08T03:47:24.057Z,8.60
2023-02-08T03:49:53.130Z,8.13
2023-02-08T03:52:19.782Z,8.57
2023-02-08T03:54:56.170Z,8.98
2023-02-08T03:57:25.619Z,7.00
2023-02-08T04:00:05.018Z,9.18
2023-02-08T04:02:42.581Z,8.70
2023-02-08T04:05:09.289Z,7.47
2023-02-08T04:07:35.851Z,8.98
2023-02-08T04:10:03.316Z,8.63
2023-02-08T04:12:30.144Z,8.18
2023-02-08T04:14:56.820Z,8.68
2023-02-08T04:17:23.408Z,8.45
2023-02-08T04:19:50.157Z,8.75
2023-02-08T04:22:16.811Z,8.45
2023-02-08T04:24:43.398Z,7.88
2023-02-08T04:27:10.017Z,8.10
2023-02-08T04:29:36.580Z,8.13
2023-02-08T04:32:03.747Z,8.05
2023-02-08T04:34:30.355Z,7.50
2023-02-08T04:36:57.051Z,8.13
2023-02-08T04:39:23.681Z,6.68
2023-02-08T04:41:50.257Z,7.30
2023-02-08T04:44:16.949Z,6.88
2023-02-08T04:46:43.683Z,7.68
2023-02-08T04:49:10.421Z,8.32
2023-02-08T04:51:37.188Z,7.72
2023-02-08T04:54:04.883Z,8.00
2023-02-08T04:56:31.529Z,9.15
2023-02-08T04:58:58.619Z,7.88
2023-02-08T05:01:25.291Z,9.13
2023-02-08T05:03:52.054Z,8.32
2023-02-08T05:06:18.702Z,8.80
2023-02-08T05:08:45.343Z,7.25
2023-02-08T05:11:12.527Z,8.20
2023-02-08T05:13:39.110Z,8.07
2023-02-08T05:16:05.869Z,7.20
2023-02-08T05:18:32.485Z,8.60
2023-02-08T05:21:00.956Z,8.57
2023-02-08T05:23:28.092Z,8.13
2023-02-08T05:25:54.798Z,8.75
2023-02-08T05:28:22.320Z,8.07
2023-02-08T05:30:49.358Z,8.55
2023-02-08T05:33:16.197Z,8.32
2023-02-08T05:35:44.937Z,8.57
2023-02-08T05:38:11.619Z,8.65
2023-02-08T05:40:38.328Z,7.63
2023-02-08T05:43:05.212Z,7.55
2023-02-08T05:45:31.834Z,7.68
2023-02-08T05:47:58.451Z,8.38
2023-02-08T05:50:25.059Z,6.45
2023-02-08T05:52:51.649Z,9.05
2023-02-08T05:55:18.246Z,8.65
2023-02-08T05:57:44.844Z,8.55
2023-02-08T06:00:12.038Z,8.32
2023-02-08T06:02:45.063Z,8.48
2023-02-08T06:05:11.646Z,9.05
2023-02-08T06:07:38.309Z,8.77
2023-02-08T06:10:05.219Z,8.85
2023-02-08T06:12:31.884Z,8.13
2023-02-08T06:14:58.457Z,8.93
2023-02-08T06:17:25.080Z,8.52
2023-02-08T06:19:51.650Z,8.52
2023-02-08T06:22:18.198Z,8.65
2023-02-08T06:24:44.742Z,8.35
2023-02-08T06:27:11.339Z,8.77
2023-02-08T06:29:37.919Z,8.23
2023-02-08T06:32:04.804Z,8.45
2023-02-08T06:34:32.030Z,8.07
2023-02-08T06:37:02.070Z,8.52
2023-02-08T06:39:29.642Z,8.43
2023-02-08T06:41:56.269Z,8.93
2023-02-08T06:44:23.089Z,8.02
2023-02-08T06:46:49.880Z,8.73
2023-02-08T06:49:16.524Z,7.68
2023-02-08T06:51:43.111Z,8.40
2023-02-08T06:54:10.095Z,8.15
2023-02-08T06:56:36.773Z,8.32
2023-02-08T06:59:03.672Z,8.65
2023-02-08T07:01:30.488Z,6.80
2023-02-08T07:03:57.108Z,7.97
2023-02-08T07:06:23.777Z,7.72
2023-02-08T07:08:50.408Z,8.02
2023-02-08T07:11:19.586Z,7.97
2023-02-08T07:13:48.349Z,8.48
2023-02-08T07:16:15.013Z,7.63
2023-02-08T07:18:41.655Z,8.20
2023-02-08T07:21:08.362Z,7.95
2023-02-08T07:23:34.930Z,7.63
2023-02-08T07:26:06.602Z,7.97
2023-02-08T07:28:33.455Z,8.40
2023-02-08T07:31:00.164Z,7.75
2023-02-08T07:33:26.869Z,8.13
2023-02-08T07:35:53.565Z,7.90
2023-02-08T07:38:20.948Z,8.10
2023-02-08T07:40:47.893Z,7.95
2023-02-08T07:43:14.720Z,8.32
2023-02-08T07:45:50.946Z,8.13
2023-02-08T07:48:18.152Z,8.40
2023-02-08T07:50:44.815Z,6.85
2023-02-08T07:53:11.383Z,7.80
2023-02-08T07:55:37.934Z,7.75
2023-02-08T07:58:04.529Z,7.47
2023-02-08T08:00:31.315Z,7.38
2023-02-08T08:02:57.868Z,7.32
2023-02-08T08:05:25.423Z,7.13
2023-02-08T08:07:51.997Z,6.70
2023-02-08T08:10:18.716Z,6.80
2023-02-08T08:12:45.330Z,6.47
2023-02-08T08:15:11.982Z,6.82
2023-02-08T08:17:42.051Z,6.97
2023-02-08T08:20:10.317Z,7.13
2023-02-08T08:22:37.166Z,6.25
2023-02-08T08:25:03.933Z,6.80
2023-02-08T08:27:30.605Z,6.43
2023-02-08T08:29:57.187Z,6.28
2023-02-08T08:32:23.911Z,6.85
2023-02-08T08:34:50.529Z,6.93
2023-02-08T08:37:17.138Z,6.32
2023-02-08T08:39:43.727Z,7.43
2023-02-08T08:42:10.570Z,6.75
2023-02-08T08:44:37.288Z,6.60
2023-02-08T08:47:03.898Z,7.70
2023-02-08T08:49:30.490Z,7.13
2023-02-08T08:51:57.602Z,7.18
2023-02-08T08:54:24.201Z,7.35
2023-02-08T08:56:50.771Z,7.32
2023-02-08T08:59:17.621Z,7.85
2023-02-08T09:01:44.336Z,7.35
2023-02-08T09:04:11.492Z,6.45
2023-02-08T09:06:38.742Z,6.63
2023-02-08T09:09:05.930Z,7.03
2023-02-08T09:11:33.232Z,7.43
2023-02-08T09:14:04.441Z,6.55
2023-02-08T09:16:32.540Z,6.07
2023-02-08T09:19:06.638Z,7.05
2023-02-08T09:21:33.871Z,7.03
2023-02-08T09:24:04.205Z,6.68
2023-02-08T09:28:57.278Z,6.80
2023-02-08T09:31:30.191Z,6.85
2023-02-08T09:34:00.016Z,6.90
2023-02-08T09:36:29.782Z,7.03
2023-02-08T09:39:03.733Z,6.53
2023-02-08T09:41:51.567Z,6.68
2023-02-08T09:44:47.211Z,6.18
2023-02-08T09:47:19.483Z,6.22
2023-02-08T09:49:58.817Z,5.55
2023-02-08T09:52:38.432Z,5.60
2023-02-08T09:55:35.543Z,5.67
2023-02-08T09:58:13.883Z,6.30
2023-02-08T10:00:42.554Z,5.78
2023-02-08T10:03:29.500Z,6.60
2023-02-08T10:05:57.063Z,5.75
2023-02-08T10:08:31.521Z,5.95
2023-02-08T10:11:09.364Z,6.68
2023-02-08T10:13:58.842Z,6.28
2023-02-08T10:16:37.782Z,5.60
2023-02-08T10:19:14.736Z,5.93
2023-02-08T10:22:00.954Z,6.57
2023-02-08T10:24:30.698Z,5.95
2023-02-08T10:27:22.442Z,5.88
2023-02-08T10:30:03.621Z,6.82
2023-02-08T10:32:50.652Z,6.13
2023-02-08T10:35:26.554Z,6.30
2023-02-08T10:37:54.409Z,6.80
2023-02-08T10:40:31.981Z,6.00
2023-02-08T10:43:10.277Z,6.18
2023-02-08T10:46:15.601Z,6.18
2023-02-08T10:49:08.217Z,6.57
2023-02-08T10:51:34.962Z,5.35
2023-02-08T10:54:01.657Z,6.53
2023-02-08T10:56:34.830Z,5.85
2023-02-08T10:59:07.083Z,4.82
2023-02-08T11:01:33.829Z,6.70
2023-02-08T11:04:07.639Z,5.20
2023-02-08T11:06:34.771Z,5.55
2023-02-08T11:09:01.461Z,5.82
2023-02-08T11:11:38.045Z,5.18
2023-02-08T11:14:13.950Z,5.10
2023-02-08T11:16:41.481Z,6.45
2023-02-08T11:19:21.561Z,5.53
2023-02-08T11:21:51.451Z,4.57
2023-02-08T11:24:26.988Z,5.57
2023-02-08T11:26:56.206Z,5.40
2023-02-08T11:29:26.171Z,5.05
2023-02-08T11:31:56.565Z,5.47
2023-02-08T11:34:38.761Z,5.25
2023-02-08T11:37:28.723Z,5.70
2023-02-08T11:39:57.457Z,4.93
2023-02-08T11:42:27.256Z,5.28
2023-02-08T11:44:57.334Z,4.75
2023-02-08T11:47:27.888Z,5.07
2023-02-08T11:50:00.981Z,5.60
2023-02-08T11:52:35.574Z,5.68
2023-02-08T11:55:24.611Z,5.68
2023-02-08T11:57:55.776Z,5.07
2023-02-08T12:00:26.279Z,5.60
2023-02-08T12:02:59.045Z,5.32
2023-02-08T12:05:38.366Z,5.43
2023-02-08T12:08:20.333Z,4.93
2023-02-08T12:11:02.215Z,4.43
2023-02-08T12:13:41.640Z,5.50
2023-02-08T12:16:40.230Z,4.77
2023-02-08T12:19:34.950Z,5.07
2023-02-08T12:22:12.335Z,4.18
2023-02-08T12:24:54.160Z,4.78
2023-02-08T12:27:37.790Z,4.90
2023-02-08T12:30:08.486Z,5.03
2023-02-08T12:32:50.436Z,4.75
2023-02-08T12:36:03.522Z,4.28
2023-02-08T12:39:33.726Z,3.72
2023-02-08T12:42:10.179Z,3.65
2023-02-08T12:44:57.784Z,3.78
2023-02-08T12:48:04.613Z,3.50
2023-02-08T12:50:44.740Z,3.42
2023-02-08T12:53:31.330Z,3.42
2023-02-08T12:56:01.292Z,3.40
2023-02-08T12:58:59.191Z,3.50
2023-02-08T13:01:38.479Z,3.47
2023-02-08T13:04:09.418Z,3.63
2023-02-08T13:06:40.127Z,3.17
2023-02-08T13:09:23.441Z,4.00
2023-02-08T13:11:57.169Z,3.70
2023-02-08T13:14:37.297Z,2.78
2023-02-08T13:17:16.125Z,2.75
2023-02-08T13:20:00.364Z,4.63
2023-02-08T13:22:29.324Z,3.97
2023-02-08T13:25:11.643Z,3.70
2023-02-08T13:27:38.364Z,3.75
2023-02-08T13:30:05.689Z,4.32
2023-02-08T13:32:43.538Z,3.72
2023-02-08T13:35:16.203Z,4.40
2023-02-08T13:38:15.755Z,3.30
2023-02-08T13:40:42.799Z,3.77
2023-02-08T13:43:33.106Z,3.42
2023-02-08T13:46:02.015Z,4.13
2023-02-08T13:48:41.713Z,4.72
2023-02-08T13:51:30.778Z,4.35
2023-02-08T13:53:57.443Z,3.92
2023-02-08T13:56:47.215Z,4.15
2023-02-08T13:59:35.354Z,5.35
2023-02-08T14:02:22.200Z,4.35
2023-02-08T14:04:56.361Z,3.63
2023-02-08T14:07:38.760Z,3.35
2023-02-08T14:10:10.245Z,4.45
2023-02-08T14:12:42.707Z,4.03
2023-02-08T14:15:15.461Z,3.72
2023-02-08T14:17:42.994Z,3.90
2023-02-08T14:20:18.863Z,4.72
2023-02-08T14:23:07.537Z,5.53
2023-02-08T14:25:43.944Z,4.10
2023-02-08T14:28:29.544Z,4.43
2023-02-08T14:30:58.451Z,5.40
2023-02-08T14:33:28.549Z,4.18
2023-02-08T14:35:57.443Z,3.90
2023-02-08T14:38:23.923Z,4.13
2023-02-08T14:40:58.071Z,4.68
2023-02-08T14:43:32.104Z,4.65
2023-02-08T14:46:36.841Z,4.43
2023-02-08T14:49:09.361Z,4.32
2023-02-08T14:51:39.050Z,3.58
2023-02-08T14:54:23.628Z,2.97
2023-02-08T14:56:57.405Z,4.22
2023-02-08T14:59:30.027Z,3.85
2023-02-08T15:02:00.113Z,4.50
2023-02-08T15:04:27.445Z,5.13
2023-02-08T15:07:09.030Z,3.50
2023-02-08T15:09:37.644Z,3.95
2023-02-08T15:12:07.865Z,5.13
2023-02-08T15:17:02.006Z,5.47
2023-02-08T15:19:35.718Z,4.55
2023-02-08T15:22:24.334Z,4.50
2023-02-08T15:24:52.837Z,3.67
2023-02-08T15:27:22.371Z,3.58
2023-02-08T15:29:49.202Z,4.63
2023-02-08T15:32:18.393Z,3.63
2023-02-08T15:34:47.027Z,4.75
2023-02-08T15:37:17.842Z,3.72
2023-02-08T15:39:46.071Z,6.00
2023-02-08T15:42:17.557Z,5.88
2023-02-08T15:44:44.716Z,3.55
2023-02-08T15:47:35.926Z,4.78
2023-02-08T15:50:05.399Z,5.80
2023-02-08T15:52:34.737Z,7.38
2023-02-08T15:55:01.941Z,6.00
2023-02-08T15:57:46.745Z,6.55
2023-02-08T16:00:18.016Z,6.72
2023-02-08T16:02:45.068Z,6.53
2023-02-08T16:05:22.741Z,7.32
2023-02-08T16:07:51.671Z,6.90
2023-02-08T16:10:33.834Z,6.78
2023-02-08T16:13:06.354Z,6.75
2023-02-08T16:15:40.770Z,7.22
2023-02-08T16:18:46.246Z,7.15
2023-02-08T16:21:21.916Z,6.72
2023-02-08T16:23:59.115Z,7.38
2023-02-08T16:26:35.381Z,6.88
2023-02-08T16:29:06.278Z,7.50
2023-02-08T16:31:35.356Z,7.40
2023-02-08T16:34:07.408Z,7.28
2023-02-08T16:36:37.246Z,6.90
2023-02-08T16:39:18.838Z,7.20
2023-02-08T16:42:13.952Z,7.38
2023-02-08T16:45:17.020Z,7.82
2023-02-08T16:47:47.236Z,7.50
2023-02-08T16:50:20.612Z,7.15
2023-02-08T16:52:49.841Z,7.20
2023-02-08T16:55:22.450Z,7.38
2023-02-08T16:57:51.943Z,7.70
2023-02-08T17:00:26.150Z,7.47
2023-02-08T17:02:53.393Z,7.55
2023-02-08T17:05:21.803Z,8.07
2023-02-08T17:07:48.980Z,7.13
2023-02-08T17:10:30.272Z,7.50
2023-02-08T17:13:13.399Z,8.38
2023-02-08T17:15:49.407Z,8.45
2023-02-08T17:18:16.334Z,7.68
2023-02-08T17:20:43.176Z,6.38
2023-02-08T17:23:10.075Z,7.13
2023-02-08T17:25:36.976Z,6.50
2023-02-08T17:28:06.251Z,7.13
2023-02-08T17:30:36.125Z,6.65
2023-02-08T17:33:03.945Z,8.48
2023-02-08T17:35:30.920Z,6.32
2023-02-08T17:37:58.104Z,7.55
2023-02-08T17:40:29.529Z,8.80
2023-02-08T17:42:56.123Z,7.47
2023-02-08T17:45:22.992Z,7.45
2023-02-08T17:47:49.606Z,7.95
2023-02-08T17:50:18.673Z,8.63
2023-02-08T17:52:46.211Z,9.65
2023-02-08T17:55:15.064Z,9.77
2023-02-08T17:57:42.816Z,9.35
2023-02-08T18:00:18.090Z,9.15
2023-02-08T18:02:47.078Z,7.18
2023-02-08T18:05:14.952Z,9.90
2023-02-08T18:07:41.638Z,9.68
2023-02-08T18:10:09.654Z,9.15
2023-02-08T18:12:37.237Z,9.68
2023-02-08T18:15:09.694Z,8.13
2023-02-08T18:17:36.442Z,7.50
2023-02-08T18:20:03.341Z,7.15
2023-02-08T18:22:30.021Z,7.65
2023-02-08T18:24:56.672Z,7.68
2023-02-08T18:27:24.952Z,8.20
2023-02-08T18:29:51.871Z,6.60
2023-02-08T18:32:20.180Z,6.57
2023-02-08T18:34:47.211Z,7.00
2023-02-08T18:37:14.722Z,6.90
2023-02-08T18:39:41.522Z,7.60
2023-02-08T18:42:08.257Z,8.95
2023-02-08T18:44:38.514Z,7.65
2023-02-08T18:49:32.403Z,8.00
2023-02-08T18:51:59.097Z,7.68
2023-02-08T18:54:25.738Z,8.80
2023-02-08T18:56:55.876Z,9.05
2023-02-08T18:59:22.973Z,10.77
2023-02-08T19:01:49.594Z,12.70
2023-02-08T19:04:16.504Z,13.73
2023-02-08T19:06:43.526Z,12.15
2023-02-08T19:09:10.149Z,8.43
2023-02-08T19:11:39.163Z,8.95
2023-02-08T19:14:08.461Z,8.77
2023-02-08T19:16:36.700Z,8.90
2023-02-08T19:19:05.226Z,7.25
2023-02-08T19:21:32.510Z,7.38
2023-02-08T19:24:00.587Z,7.05
2023-02-08T19:26:29.441Z,7.80
2023-02-08T19:28:58.960Z,7.53
2023-02-08T19:31:27.178Z,7.65
2023-02-08T19:33:58.451Z,7.22
2023-02-08T19:36:28.643Z,7.45
2023-02-08T19:38:55.850Z,8.18
2023-02-08T19:41:33.148Z,7.88
2023-02-08T19:44:00.834Z,8.40
2023-02-08T19:46:28.338Z,7.43
2023-02-08T19:48:59.800Z,8.55
2023-02-08T19:51:32.049Z,7.68
2023-02-08T19:54:00.732Z,7.70
2023-02-08T19:56:31.042Z,7.38
2023-02-08T20:01:24.255Z,8.80
2023-02-08T20:03:53.257Z,8.52
2023-02-08T20:06:22.148Z,9.60
2023-02-08T20:08:49.148Z,11.13
2023-02-08T20:11:26.872Z,10.25
2023-02-08T20:13:54.826Z,9.45
2023-02-08T20:16:22.027Z,8.48
2023-02-08T20:18:49.867Z,8.95
2023-02-08T20:21:16.940Z,8.93
2023-02-08T20:23:43.820Z,9.07
2023-02-08T20:26:18.505Z,9.43
2023-02-08T20:28:48.371Z,10.18
2023-02-08T20:31:17.978Z,8.82
2023-02-08T20:33:44.837Z,8.80
2023-02-08T20:36:15.331Z,8.55
2023-02-08T20:38:42.241Z,10.60
2023-02-08T20:41:13.128Z,10.32
2023-02-08T20:43:41.234Z,8.18
2023-02-08T20:46:10.915Z,9.52
2023-02-08T20:48:37.660Z,10.95
2023-02-08T20:51:09.526Z,11.35
2023-02-08T20:53:37.778Z,9.40
2023-02-08T20:56:06.182Z,11.32
2023-02-08T20:58:33.095Z,12.35
2023-02-08T21:00:59.719Z,12.05
2023-02-08T21:03:26.336Z,11.18
2023-02-08T21:05:53.450Z,10.85
2023-02-08T21:08:20.098Z,11.23
2023-02-08T21:10:46.886Z,10.85
2023-02-08T21:13:13.589Z,11.05
2023-02-08T21:15:43.836Z,15.75
2023-02-08T21:18:11.439Z,13.70
2023-02-08T21:20:41.035Z,13.10
2023-02-08T21:23:07.652Z,13.68
2023-02-08T21:25:34.411Z,10.88
2023-02-08T21:28:01.211Z,10.90
2023-02-08T21:30:27.964Z,10.88
2023-02-08T21:32:54.632Z,11.50
2023-02-08T21:35:21.343Z,11.50
2023-02-08T21:37:47.912Z,14.00
2023-02-08T21:40:14.767Z,11.98
2023-02-08T21:42:41.389Z,12.95
2023-02-08T21:45:09.840Z,12.88
2023-02-08T21:47:36.739Z,12.02
2023-02-08T21:50:22.235Z,12.40
2023-02-08T21:53:08.182Z,11.65
2023-02-08T21:55:35.006Z,10.88
2023-02-08T21:58:01.734Z,10.35
2023-02-08T22:00:28.393Z,13.95
2023-02-08T22:02:54.968Z,10.65
2023-02-08T22:05:40.384Z,8.85
2023-02-08T22:08:07.155Z,9.30
2023-02-08T22:10:33.747Z,9.50
2023-02-08T22:13:00.538Z,9.95
2023-02-08T22:15:28.781Z,9.70
2023-02-08T22:17:57.606Z,9.25
2023-02-08T22:20:24.217Z,8.50
2023-02-08T22:22:54.273Z,11.25
2023-02-08T22:25:22.467Z,9.65
2023-02-08T22:27:49.154Z,10.68
2023-02-08T22:30:17.841Z,10.02
2023-02-08T22:32:46.543Z,9.77
2023-02-08T22:35:13.711Z,9.35
2023-02-08T22:37:40.305Z,12.15
2023-02-08T22:40:07.712Z,10.50
2023-02-08T22:42:34.361Z,12.07
2023-02-08T22:45:00.939Z,11.90
2023-02-08T22:47:27.528Z,11.30
2023-02-08T22:49:57.122Z,9.73
2023-02-08T22:52:25.627Z,10.23
2023-02-08T22:54:52.848Z,9.52
2023-02-08T22:57:19.533Z,10.45
2023-02-08T22:59:47.522Z,9.82
2023-02-08T23:02:17.047Z,10.07
2023-02-08T23:04:43.740Z,10.75
2023-02-08T23:07:10.544Z,10.68
2023-02-08T23:09:37.150Z,10.27
2023-02-08T23:12:03.799Z,10.45
2023-02-08T23:14:30.526Z,10.55
2023-02-08T23:16:58.430Z,10.48
2023-02-08T23:19:25.289Z,10.85
2023-02-08T23:21:53.221Z,9.65
2023-02-08T23:24:19.877Z,10.30
2023-02-08T23:26:47.598Z,10.40
2023-02-08T23:29:14.152Z,10.60
2023-02-08T23:31:41.165Z,10.65
2023-02-08T23:34:07.918Z,10.38
2023-02-08T23:36:34.520Z,10.68
2023-02-08T23:39:01.277Z,9.95
2023-02-08T23:41:28.031Z,10.77
2023-02-08T23:43:54.653Z,10.10
2023-02-08T23:46:23.725Z,10.63
2023-02-08T23:48:50.477Z,9.32
2023-02-08T23:51:18.438Z,10.60
2023-02-08T23:53:45.221Z,10.95
2023-02-08T23:56:11.805Z,10.07
2023-02-08T23:58:39.090Z,11.23
